Time;durP1;ratioP1;P1;durP2;ratioP2;P2;SDS_P1;SDS_P2;PMS_P1;PMS_P2;Temp;Humidity;BMP_temperature;BMP_pressure;BME280_temperature;BME280_humidity;BME280_pressure;Samples;Min_cycle;Max_cycle;Signal;HPM_P1;HPM_P2
2023/01/12 00:01:24;;;;;;;7.78;1.20;;;9.10;99.90;;;;;;5053895;28;20094;-81
2023/01/12 00:03:51;;;;;;;5.40;1.38;;;9.10;99.90;;;;;;5055488;28;20037;-82
2023/01/12 00:06:18;;;;;;;6.40;1.25;;;9.10;99.90;;;;;;5054240;28;20029;-81
2023/01/12 00:08:47;;;;;;;6.57;1.52;;;9.10;99.90;;;;;;5054267;28;20112;-81
2023/01/12 00:11:14;;;;;;;5.20;1.40;;;9.10;99.90;;;;;;5055570;28;20485;-80
2023/01/12 00:13:40;;;;;;;6.88;1.75;;;9.10;99.90;;;;;;5054135;28;20036;-81
2023/01/12 00:18:50;;;;;;;10.15;1.95;;;9.10;99.90;;;;;;5071151;28;20396;-82
2023/01/12 00:21:16;;;;;;;8.73;2.53;;;9.10;99.90;;;;;;5024442;28;20032;-81
2023/01/12 00:23:43;;;;;;;9.70;3.28;;;9.10;99.90;;;;;;5040627;28;20028;-81
2023/01/12 00:26:10;;;;;;;11.15;2.85;;;9.10;99.90;;;;;;5057052;28;20033;-80
2023/01/12 00:28:37;;;;;;;11.98;2.85;;;9.20;99.90;;;;;;5075032;28;20048;-81
2023/01/12 00:31:08;;;;;;;7.68;2.67;;;9.10;99.90;;;;;;5056631;28;20025;-81
2023/01/12 00:33:38;;;;;;;8.13;2.55;;;9.20;99.90;;;;;;5041146;28;20032;-81
2023/01/12 00:36:10;;;;;;;10.38;2.80;;;9.20;99.90;;;;;;5056640;28;20122;-81
2023/01/12 00:38:37;;;;;;;11.95;3.40;;;9.20;99.90;;;;;;5040124;28;20453;-81
2023/01/12 00:45:20;;;;;;;14.20;2.83;;;9.20;99.90;;;;;;5056602;28;20052;-81
2023/01/12 00:46:42;;;;;;;11.55;2.50;;;9.30;99.90;;;;;;5059767;28;20087;-82
2023/01/12 00:49:08;;;;;;;14.85;3.50;;;9.20;99.90;;;;;;5056700;28;20025;-81
2023/01/12 00:51:33;;;;;;;19.60;4.22;;;9.20;99.90;;;;;;5023966;28;20392;-81
2023/01/12 00:54:03;;;;;;;16.38;3.28;;;9.20;99.90;;;;;;5039943;28;20032;-81
2023/01/12 00:56:29;;;;;;;13.70;3.45;;;9.20;99.90;;;;;;5040227;28;20029;-81
2023/01/12 00:58:55;;;;;;;19.65;4.05;;;9.20;99.90;;;;;;5056444;28;20510;-81
2023/01/12 01:01:20;;;;;;;11.82;3.60;;;9.20;99.90;;;;;;5023208;28;20058;-81
2023/01/12 01:03:46;;;;;;;18.95;4.35;;;9.30;99.90;;;;;;5039757;28;20163;-82
2023/01/12 01:06:12;;;;;;;18.35;4.10;;;9.30;99.90;;;;;;5056384;28;20029;-81
2023/01/12 01:08:37;;;;;;;15.40;4.68;;;9.20;99.90;;;;;;5039696;28;20097;-81
2023/01/12 01:11:10;;;;;;;23.35;5.35;;;9.30;99.90;;;;;;5039870;28;20086;-81
2023/01/12 01:13:36;;;;;;;17.10;4.80;;;9.30;99.90;;;;;;5056252;28;20040;-81
2023/01/12 01:16:05;;;;;;;19.42;4.50;;;9.30;99.90;;;;;;5056146;28;20457;-82
2023/01/12 01:18:31;;;;;;;23.88;5.07;;;9.30;99.90;;;;;;5073901;28;20045;-80
2023/01/12 01:20:57;;;;;;;20.85;4.40;;;9.30;99.90;;;;;;5055873;28;20063;-82
2023/01/12 01:23:24;;;;;;;18.50;4.47;;;9.30;99.90;;;;;;5039483;28;20056;-82
2023/01/12 01:25:51;;;;;;;20.55;4.60;;;9.30;99.90;;;;;;5056047;28;20039;-80
2023/01/12 01:28:17;;;;;;;23.70;4.68;;;9.30;99.90;;;;;;5055597;28;20111;-81
2023/01/12 01:30:45;;;;;;;17.77;4.72;;;9.30;99.90;;;;;;5073805;28;20052;-81
2023/01/12 01:33:11;;;;;;;22.58;4.68;;;9.40;99.90;;;;;;5055746;28;20439;-81
2023/01/12 01:35:36;;;;;;;17.48;4.43;;;9.40;99.90;;;;;;5056011;28;20033;-80
2023/01/12 01:38:03;;;;;;;15.95;4.22;;;9.40;99.90;;;;;;5055856;28;20425;-81
2023/01/12 01:40:28;;;;;;;22.63;4.85;;;9.40;99.90;;;;;;5039318;28;20029;-80
2023/01/12 01:42:54;;;;;;;15.48;3.92;;;9.40;99.90;;;;;;5039229;28;20534;-80
2023/01/12 01:45:20;;;;;;;17.63;5.07;;;9.40;99.90;;;;;;5056094;28;20457;-80
2023/01/12 01:47:50;;;;;;;13.77;3.63;;;9.40;99.90;;;;;;5022324;28;20021;-81
2023/01/12 01:50:23;;;;;;;14.75;3.95;;;9.40;99.90;;;;;;5055501;28;20107;-80
2023/01/12 01:52:54;;;;;;;20.67;3.88;;;9.40;99.90;;;;;;5055366;28;20028;-80
2023/01/12 01:55:25;;;;;;;;;;;9.40;99.90;;;;;;5073624;28;20021;-81
2023/01/12 01:57:59;;;;;;;14.57;3.20;;;9.40;99.90;;;;;;5055481;28;19936;-81
2023/01/12 02:00:25;;;;;;;15.80;3.83;;;9.40;99.90;;;;;;5055381;28;20506;-81
2023/01/12 02:02:52;;;;;;;15.15;4.10;;;9.40;99.90;;;;;;5055441;28;20058;-81
2023/01/12 02:05:22;;;;;;;16.38;3.80;;;9.40;99.90;;;;;;5055268;28;20032;-81
2023/01/12 02:07:49;;;;;;;20.40;4.72;;;9.40;99.90;;;;;;5055413;28;20021;-80
2023/01/12 02:10:16;;;;;;;16.55;3.20;;;9.40;99.90;;;;;;5055290;28;20016;-81
2023/01/12 02:18:42;;;;;;;15.25;3.80;;;9.40;99.90;;;;;;5072789;28;20074;-81
2023/01/12 02:21:22;;;;;;;15.60;3.35;;;9.50;99.90;;;;;;5055179;28;20052;-82
2023/01/12 02:24:01;;;;;;;15.00;2.95;;;9.40;99.90;;;;;;5055425;28;20082;-81
2023/01/12 02:27:05;;;;;;;16.02;3.53;;;9.50;99.90;;;;;;5055243;28;20388;-81
2023/01/12 02:29:57;;;;;;;19.15;3.03;;;9.50;99.90;;;;;;5055099;28;20025;-82
2023/01/12 02:32:56;;;;;;;13.35;2.58;;;9.50;99.90;;;;;;5045436;28;20038;-81
2023/01/12 02:35:29;;;;;;;14.85;2.90;;;9.50;99.90;;;;;;5054979;28;20024;-81
2023/01/12 02:38:34;;;;;;;16.65;3.03;;;9.40;99.90;;;;;;5054904;28;20032;-81
2023/01/12 02:41:16;;;;;;;17.98;2.63;;;9.40;99.90;;;;;;5014833;28;20136;-82
2023/01/12 02:43:42;;;;;;;14.10;2.97;;;9.40;99.90;;;;;;5054636;28;20037;-82
2023/01/12 02:46:32;;;;;;;13.45;2.53;;;9.40;99.90;;;;;;5038389;28;20048;-81
2023/01/12 02:49:27;;;;;;;12.18;2.63;;;9.40;99.90;;;;;;5055014;28;20028;-81
2023/01/12 02:51:57;;;;;;;13.27;2.85;;;9.40;99.90;;;;;;5053452;28;20420;-81
2023/01/12 02:54:25;;;;;;;11.68;2.17;;;9.40;99.90;;;;;;5054674;28;20025;-80
2023/01/12 02:56:54;;;;;;;14.93;2.55;;;9.40;99.90;;;;;;5038569;28;20052;-81
2023/01/12 02:59:33;;;;;;;14.75;2.72;;;9.40;99.90;;;;;;5054810;28;20027;-81
2023/01/12 03:02:12;;;;;;;8.35;2.67;;;9.40;99.90;;;;;;5058317;28;20028;-81
2023/01/12 03:04:39;;;;;;;12.75;3.33;;;9.40;99.90;;;;;;5058915;28;20028;-81
2023/01/12 03:07:04;;;;;;;11.85;2.80;;;9.40;99.90;;;;;;5076626;28;20017;-81
2023/01/12 03:09:38;;;;;;;15.77;3.00;;;9.40;99.90;;;;;;5076459;28;20078;-81
2023/01/12 03:12:09;;;;;;;15.05;2.83;;;9.40;99.90;;;;;;5058625;28;20035;-81
2023/01/12 03:14:38;;;;;;;13.82;2.85;;;9.40;99.90;;;;;;5058639;28;20464;-81
2023/01/12 03:17:08;;;;;;;16.75;4.00;;;9.30;99.90;;;;;;5076224;28;20465;-81
2023/01/12 03:19:35;;;;;;;19.40;4.13;;;9.30;99.90;;;;;;5076036;28;20072;-82
2023/01/12 03:22:06;;;;;;;17.58;3.35;;;9.30;99.90;;;;;;5058492;28;20033;-81
2023/01/12 03:24:51;;;;;;;15.52;3.40;;;9.20;99.90;;;;;;5058558;28;20021;-81
2023/01/12 03:27:35;;;;;;;19.92;3.97;;;9.20;99.90;;;;;;5058450;28;20017;-82
2023/01/12 03:30:11;;;;;;;17.92;3.70;;;9.30;99.90;;;;;;5075764;28;20025;-81
2023/01/12 03:32:36;;;;;;;15.90;2.97;;;9.30;99.90;;;;;;5057361;28;20028;-82
2023/01/12 03:35:04;;;;;;;24.13;3.90;;;9.30;99.90;;;;;;5041605;28;20116;-82
2023/01/12 03:37:40;;;;;;;25.05;3.47;;;9.30;99.90;;;;;;5057973;28;20059;-82
2023/01/12 03:40:15;;;;;;;17.17;3.60;;;9.30;99.90;;;;;;5058115;28;20017;-82
2023/01/12 03:43:35;;;;;;;12.60;2.80;;;9.30;99.90;;;;;;5075708;28;20028;-81
2023/01/12 03:46:13;;;;;;;23.75;3.70;;;9.30;99.90;;;;;;4977857;28;20526;-81
2023/01/12 03:48:53;;;;;;;21.35;2.63;;;9.30;99.90;;;;;;5048181;28;20029;-81
2023/01/12 03:51:23;;;;;;;21.40;3.08;;;9.30;99.90;;;;;;5057763;28;20065;-82
2023/01/12 03:53:51;;;;;;;11.83;3.10;;;9.30;99.90;;;;;;5058058;28;20024;-81
2023/01/12 03:56:19;;;;;;;18.80;2.78;;;9.30;99.90;;;;;;5059204;28;20074;-82
2023/01/12 03:58:46;;;;;;;11.82;2.63;;;9.30;99.90;;;;;;5058370;28;20123;-81
2023/01/12 04:01:11;;;;;;;16.20;2.72;;;9.30;99.90;;;;;;5045205;28;20055;-81
2023/01/12 04:03:37;;;;;;;19.10;2.83;;;9.30;99.90;;;;;;5065795;28;20453;-81
2023/01/12 04:06:03;;;;;;;17.38;4.95;;;9.30;99.90;;;;;;5066354;28;20032;-81
2023/01/12 04:08:28;;;;;;;19.55;2.80;;;9.30;99.90;;;;;;5065849;28;20044;-82
2023/01/12 04:10:55;;;;;;;13.75;2.95;;;9.30;99.90;;;;;;5065071;28;20044;-81
2023/01/12 04:13:20;;;;;;;13.55;2.50;;;9.30;99.90;;;;;;5032758;28;20051;-85
2023/01/12 04:15:47;;;;;;;19.77;2.47;;;9.30;99.90;;;;;;5057753;28;20028;-82
2023/01/12 04:18:13;;;;;;;11.30;2.13;;;9.30;99.90;;;;;;5057184;28;20080;-82
2023/01/12 04:20:40;;;;;;;15.80;2.15;;;9.30;99.90;;;;;;5075574;28;20096;-82
2023/01/12 04:23:06;;;;;;;12.25;2.40;;;9.30;99.90;;;;;;5074900;28;20047;-83
2023/01/12 04:25:32;;;;;;;16.33;2.80;;;9.30;99.90;;;;;;5040645;28;20028;-82
2023/01/12 04:28:02;;;;;;;14.23;2.65;;;9.30;99.90;;;;;;5074930;28;20024;-82
2023/01/12 04:30:30;;;;;;;9.70;1.80;;;9.20;99.90;;;;;;5057814;28;20119;-81
2023/01/12 04:32:57;;;;;;;13.48;2.83;;;9.20;99.90;;;;;;5075097;28;20158;-80
2023/01/12 04:35:24;;;;;;;10.70;2.30;;;9.20;99.90;;;;;;5074940;28;20024;-81
2023/01/12 04:37:50;;;;;;;9.98;2.03;;;9.20;99.90;;;;;;5056950;28;20021;-81
2023/01/12 04:40:16;;;;;;;11.55;2.10;;;9.20;99.90;;;;;;5056938;28;20035;-80
2023/01/12 04:43:00;;;;;;;13.23;2.38;;;9.20;99.90;;;;;;5023860;28;20099;-81
2023/01/12 04:45:27;;;;;;;10.70;1.88;;;9.20;99.90;;;;;;5056662;28;20024;-81
2023/01/12 04:47:52;;;;;;;17.42;2.20;;;9.20;99.90;;;;;;5074938;28;20020;-81
2023/01/12 04:50:18;;;;;;;11.90;2.22;;;9.20;99.90;;;;;;5040318;28;20380;-82
2023/01/12 04:52:44;;;;;;;15.10;2.20;;;9.10;99.90;;;;;;5056483;28;20438;-80
2023/01/12 04:55:10;;;;;;;13.93;2.50;;;9.10;99.90;;;;;;5040078;28;20119;-81
2023/01/12 04:57:35;;;;;;;9.77;2.00;;;9.10;99.90;;;;;;5023457;28;20102;-81
2023/01/12 05:00:03;;;;;;;14.07;2.60;;;9.20;99.90;;;;;;5023490;28;20020;-80
2023/01/12 05:02:29;;;;;;;10.85;2.08;;;9.20;99.90;;;;;;5074217;28;20056;-81
2023/01/12 05:04:55;;;;;;;8.02;1.80;;;9.20;99.90;;;;;;5039687;28;20109;-82
2023/01/12 05:07:20;;;;;;;11.85;2.05;;;9.10;99.90;;;;;;5023016;28;20025;-81
2023/01/12 05:12:30;;;;;;;13.55;2.72;;;9.20;99.90;;;;;;5073649;28;20038;-82
2023/01/12 05:14:56;;;;;;;15.02;2.50;;;9.20;99.90;;;;;;5039231;28;20021;-81
2023/01/12 05:17:21;;;;;;;10.68;1.90;;;9.20;99.90;;;;;;5039348;28;20408;-80
2023/01/12 05:19:48;;;;;;;12.70;1.98;;;9.20;99.90;;;;;;5056500;28;20028;-80
2023/01/12 05:22:14;;;;;;;10.32;2.08;;;9.20;99.90;;;;;;5023338;28;20036;-81
2023/01/12 05:24:40;;;;;;;11.98;1.95;;;9.30;99.90;;;;;;5038765;28;20410;-80
2023/01/12 05:27:05;;;;;;;8.18;1.63;;;9.30;99.90;;;;;;5039039;28;20087;-80
2023/01/12 05:29:31;;;;;;;9.85;1.60;;;9.30;99.90;;;;;;5038902;28;20029;-84
2023/01/12 05:31:56;;;;;;;10.13;1.67;;;9.30;99.90;;;;;;5038779;28;20056;-80
2023/01/12 05:34:22;;;;;;;9.00;1.83;;;9.30;99.90;;;;;;5055320;28;20013;-80
2023/01/12 05:36:48;;;;;;;9.35;1.75;;;9.30;99.90;;;;;;5055687;28;20043;-80
2023/01/12 05:39:14;;;;;;;9.18;1.73;;;9.30;99.90;;;;;;5039138;28;20033;-79
2023/01/12 05:43:48;;;;;;;9.25;1.58;;;9.30;99.90;;;;;;5039064;28;20036;-80
2023/01/12 05:44:26;;;;;;;6.15;1.50;;;9.30;99.90;;;;;;5073368;28;20032;-81
2023/01/12 05:46:52;;;;;;;6.93;1.75;;;9.40;99.90;;;;;;5039500;28;20036;-81
2023/01/12 05:49:17;;;;;;;10.13;1.60;;;9.40;99.90;;;;;;5021567;28;20476;-82
2023/01/12 05:51:43;;;;;;;11.48;1.95;;;9.40;99.90;;;;;;5038316;28;20036;-80
2023/01/12 05:54:09;;;;;;;8.40;1.65;;;9.40;99.90;;;;;;5039260;28;20502;-81
2023/01/12 05:56:34;;;;;;;7.93;1.48;;;9.40;99.90;;;;;;5022360;28;20024;-81
2023/01/12 05:59:03;;;;;;;6.55;1.60;;;9.40;99.90;;;;;;5038855;28;20111;-81
2023/01/12 06:01:30;;;;;;;9.52;1.55;;;9.40;99.90;;;;;;5055979;28;20595;-81
2023/01/12 06:03:57;;;;;;;11.38;1.73;;;9.50;99.90;;;;;;5073360;28;20051;-81
2023/01/12 06:06:25;;;;;;;13.23;2.88;;;9.40;99.90;;;;;;5055511;28;20040;-81
2023/01/12 06:08:51;;;;;;;9.73;1.80;;;9.50;99.90;;;;;;5073350;28;20052;-81
2023/01/12 06:14:02;;;;;;;7.70;1.55;;;9.50;99.90;;;;;;5044294;28;20043;-81
2023/01/12 06:16:28;;;;;;;11.25;2.20;;;9.40;99.90;;;;;;5038869;28;20029;-81
2023/01/12 06:18:54;;;;;;;9.35;1.55;;;9.50;99.90;;;;;;5072705;28;20598;-82
2023/01/12 06:21:20;;;;;;;6.75;1.60;;;9.50;99.90;;;;;;5037479;28;20115;-82
2023/01/12 06:23:46;;;;;;;7.13;1.40;;;9.50;99.90;;;;;;5037152;28;20577;-82
2023/01/12 06:26:11;;;;;;;10.50;1.58;;;9.50;99.90;;;;;;5037503;28;20032;-83
2023/01/12 06:28:39;;;;;;;5.65;1.20;;;9.50;99.90;;;;;;5054320;28;20358;-84
2023/01/12 06:31:08;;;;;;;6.20;1.30;;;9.50;99.90;;;;;;5071856;28;20624;-82
2023/01/12 06:33:36;;;;;;;7.97;1.25;;;9.50;99.90;;;;;;5072277;28;20040;-82
2023/01/12 06:36:03;;;;;;;6.63;1.23;;;9.50;99.90;;;;;;5058235;28;20025;-82
2023/01/12 06:38:31;;;;;;;6.68;1.52;;;9.50;99.90;;;;;;5058622;28;20089;-83
2023/01/12 06:42:27;;;;;;;8.35;1.50;;;9.50;99.90;;;;;;5058578;28;20032;-81
2023/01/12 06:43:54;;;;;;;7.40;1.45;;;9.50;99.90;;;;;;5076223;28;20055;-81
2023/01/12 06:46:19;;;;;;;5.18;1.23;;;9.60;99.90;;;;;;5058324;28;20465;-82
2023/01/12 06:48:45;;;;;;;9.30;1.67;;;9.60;99.90;;;;;;5025386;28;20025;-81
2023/01/12 06:51:11;;;;;;;8.70;1.52;;;9.60;99.90;;;;;;5024501;28;20071;-82
2023/01/12 06:53:36;;;;;;;7.68;1.45;;;9.70;99.90;;;;;;5042293;28;20035;-82
2023/01/12 06:56:02;;;;;;;6.65;1.17;;;9.70;99.90;;;;;;5076638;28;20028;-81
2023/01/12 06:58:28;;;;;;;7.03;1.52;;;9.70;99.90;;;;;;5059178;28;20115;-82
2023/01/12 07:00:59;;;;;;;4.57;1.40;;;9.70;99.90;;;;;;5042010;28;20028;-82
2023/01/12 07:03:24;;;;;;;7.88;1.50;;;9.70;99.90;;;;;;5076818;28;20507;-81
2023/01/12 07:05:50;;;;;;;6.57;1.63;;;9.70;99.90;;;;;;5042051;28;20032;-82
2023/01/12 07:08:18;;;;;;;2.92;1.20;;;9.70;99.90;;;;;;5058839;28;20052;-82
2023/01/12 07:10:44;;;;;;;6.20;1.50;;;9.70;99.90;;;;;;5026120;28;20178;-83
2023/01/12 07:13:10;;;;;;;8.27;1.80;;;9.70;99.90;;;;;;5058355;28;20036;-81
2023/01/12 07:15:35;;;;;;;8.73;2.42;;;9.80;99.90;;;;;;5042127;28;20032;-82
2023/01/12 07:18:01;;;;;;;6.65;1.77;;;9.80;99.90;;;;;;5025225;28;20072;-81
2023/01/12 07:20:27;;;;;;;6.38;1.85;;;9.80;99.90;;;;;;5058593;28;20043;-82
2023/01/12 07:22:54;;;;;;;8.50;1.70;;;9.80;99.90;;;;;;5025397;28;20064;-83
2023/01/12 07:25:20;;;;;;;3.58;1.27;;;9.80;99.90;;;;;;5058347;28;20451;-81
2023/01/12 07:27:50;;;;;;;3.45;1.40;;;9.80;99.90;;;;;;5025314;28;20028;-82
2023/01/12 07:30:17;;;;;;;6.75;1.65;;;9.80;99.90;;;;;;5058066;28;20021;-86
2023/01/12 07:32:42;;;;;;;5.80;1.77;;;9.90;99.90;;;;;;5041039;28;20117;-87
2023/01/12 07:35:09;;;;;;;5.72;1.88;;;9.90;99.90;;;;;;5040952;28;20116;-86
2023/01/12 07:37:34;;;;;;;7.18;2.17;;;9.90;99.90;;;;;;5040504;28;20089;-86
2023/01/12 07:40:03;;;;;;;5.65;1.98;;;9.90;99.90;;;;;;5040661;28;20020;-86
2023/01/12 07:42:28;;;;;;;6.78;2.47;;;9.90;99.90;;;;;;5041637;28;20067;-85
2023/01/12 07:44:56;;;;;;;4.78;2.17;;;9.90;99.90;;;;;;5058398;28;20037;-87
2023/01/12 07:47:22;;;;;;;7.43;1.85;;;10.00;99.90;;;;;;5057251;28;20028;-81
2023/01/12 07:49:47;;;;;;;4.93;1.80;;;10.00;99.90;;;;;;5041402;28;20020;-82
2023/01/12 07:52:13;;;;;;;5.05;1.70;;;10.00;99.90;;;;;;5075890;28;20429;-82
2023/01/12 07:54:39;;;;;;;5.47;1.88;;;10.00;99.90;;;;;;5076061;28;20031;-86
2023/01/12 07:57:10;;;;;;;5.60;2.00;;;10.00;99.90;;;;;;5057562;28;20020;-82
2023/01/12 07:59:35;;;;;;;7.15;2.10;;;10.00;99.90;;;;;;5057791;28;20029;-82
2023/01/12 08:02:01;;;;;;;5.72;2.22;;;10.00;99.90;;;;;;5024549;28;20083;-83
2023/01/12 08:04:27;;;;;;;5.75;2.17;;;10.10;99.90;;;;;;5040001;28;20354;-82
2023/01/12 08:06:52;;;;;;;6.13;2.60;;;10.10;99.90;;;;;;5040038;28;20369;-82
2023/01/12 08:09:18;;;;;;;4.47;2.30;;;10.10;99.90;;;;;;5057328;28;20017;-82
2023/01/12 08:11:43;;;;;;;6.82;2.63;;;10.10;99.90;;;;;;5040761;28;20035;-82
2023/01/12 08:14:21;;;;;;;5.20;2.65;;;10.10;99.90;;;;;;5057280;28;20024;-81
2023/01/12 08:16:48;;;;;;;5.82;2.58;;;10.10;99.90;;;;;;5075437;28;20530;-81
2023/01/12 08:19:22;;;;;;;6.88;2.67;;;10.10;99.90;;;;;;5024245;28;20053;-82
2023/01/12 08:21:52;;;;;;;4.80;2.10;;;10.10;99.90;;;;;;5057347;28;20380;-82
2023/01/12 08:24:24;;;;;;;7.85;2.85;;;10.10;99.90;;;;;;5075304;28;20028;-82
2023/01/12 08:26:52;;;;;;;3.90;2.25;;;10.10;99.90;;;;;;5074942;28;20074;-82
2023/01/12 08:29:30;;;;;;;7.93;3.38;;;10.10;99.90;;;;;;5075163;28;20024;-82
2023/01/12 08:32:05;;;;;;;7.03;2.72;;;10.10;99.90;;;;;;5057033;28;20028;-82
2023/01/12 08:34:33;;;;;;;5.65;2.38;;;10.20;99.90;;;;;;5075175;28;20025;-81
2023/01/12 08:37:02;;;;;;;4.25;2.60;;;10.10;99.90;;;;;;5057067;28;20034;-82
2023/01/12 08:39:28;;;;;;;4.93;2.47;;;10.20;99.90;;;;;;5056953;28;20111;-82
2023/01/12 08:41:54;;;;;;;5.75;2.60;;;10.20;99.90;;;;;;5040153;28;20056;-82
2023/01/12 08:44:20;;;;;;;4.95;2.65;;;10.20;99.90;;;;;;5074822;28;20575;-81
2023/01/12 08:46:51;;;;;;;6.65;2.55;;;10.20;99.90;;;;;;5040244;28;20025;-81
2023/01/12 08:49:22;;;;;;;8.45;2.80;;;10.20;99.90;;;;;;5074695;28;20029;-81
2023/01/12 08:51:48;;;;;;;5.47;2.80;;;10.20;99.90;;;;;;5057198;28;20032;-81
2023/01/12 08:54:16;;;;;;;5.43;2.50;;;10.20;99.90;;;;;;5040507;28;20128;-81
2023/01/12 08:56:41;;;;;;;6.80;2.10;;;10.30;99.90;;;;;;5075366;28;20032;-81
2023/01/12 08:59:07;;;;;;;3.15;2.20;;;10.30;99.90;;;;;;5039754;28;20025;-81
2023/01/12 09:01:33;;;;;;;5.72;2.60;;;10.30;99.90;;;;;;5040356;28;20021;-82
2023/01/12 09:03:59;;;;;;;5.53;2.58;;;10.30;99.90;;;;;;5039998;28;20028;-83
2023/01/12 09:06:30;;;;;;;6.13;3.20;;;10.30;99.90;;;;;;5056675;28;20024;-83
2023/01/12 09:08:59;;;;;;;6.03;2.70;;;10.30;99.90;;;;;;5056357;28;20021;-88
2023/01/12 09:11:26;;;;;;;5.70;2.80;;;10.40;99.90;;;;;;5073938;28;20024;-82
2023/01/12 09:13:52;;;;;;;5.53;2.63;;;10.40;99.90;;;;;;5056231;28;20111;-82
2023/01/12 09:16:19;;;;;;;7.15;3.30;;;10.40;99.90;;;;;;5074379;28;20103;-82
2023/01/12 09:18:45;;;;;;;7.10;3.38;;;10.40;99.90;;;;;;5039461;28;20056;-83
2023/01/12 09:21:13;;;;;;;5.32;3.10;;;10.40;99.90;;;;;;5055974;28;20131;-82
2023/01/12 09:23:40;;;;;;;7.32;3.20;;;10.40;99.90;;;;;;5074078;28;20039;-82
2023/01/12 09:26:11;;;;;;;5.70;3.22;;;10.40;99.90;;;;;;5055964;28;20020;-83
2023/01/12 09:28:37;;;;;;;7.57;3.38;;;10.50;99.90;;;;;;5056300;28;20090;-82
2023/01/12 09:31:05;;;;;;;5.65;3.22;;;10.50;99.90;;;;;;5073866;28;20465;-82
2023/01/12 09:33:31;;;;;;;5.45;3.33;;;10.50;99.90;;;;;;5039745;28;20500;-82
2023/01/12 09:36:06;;;;;;;4.60;2.60;;;10.50;99.90;;;;;;5055876;28;20526;-82
2023/01/12 09:38:35;;;;;;;8.65;3.00;;;10.50;99.90;;;;;;5074124;28;20066;-83
2023/01/12 09:41:08;;;;;;;7.40;3.05;;;10.60;99.90;;;;;;5055794;28;20028;-84
2023/01/12 09:46:57;;;;;;;5.95;2.88;;;10.50;99.90;;;;;;5073787;28;20043;-82
2023/01/12 09:49:32;;;;;;;4.72;2.88;;;10.50;99.90;;;;;;5055766;28;20021;-82
2023/01/12 09:52:29;;;;;;;6.07;2.40;;;10.60;99.90;;;;;;5073856;28;20525;-82
2023/01/12 09:54:55;;;;;;;7.07;3.00;;;10.60;99.90;;;;;;5055807;28;20032;-81
2023/01/12 09:57:42;;;;;;;8.57;2.95;;;10.60;99.90;;;;;;5039147;28;20028;-81
2023/01/12 10:00:11;;;;;;;6.43;3.13;;;10.60;99.90;;;;;;5073577;28;20031;-82
2023/01/12 10:02:42;;;;;;;4.43;2.80;;;10.60;99.90;;;;;;5038840;28;20435;-82
2023/01/12 10:05:22;;;;;;;5.85;2.83;;;10.60;99.90;;;;;;5073820;28;20032;-82
2023/01/12 10:07:51;;;;;;;6.40;3.25;;;10.60;99.90;;;;;;5073550;28;20017;-82
2023/01/12 10:10:16;;;;;;;4.75;2.80;;;10.70;99.90;;;;;;5055523;28;20029;-83
2023/01/12 10:12:50;;;;;;;5.90;2.58;;;10.70;99.90;;;;;;5055294;28;20039;-82
2023/01/12 10:15:21;;;;;;;4.68;2.25;;;10.70;99.90;;;;;;5055505;28;20021;-82
2023/01/12 10:18:14;;;;;;;5.22;2.20;;;10.70;99.90;;;;;;5073098;28;20051;-82
2023/01/12 10:20:43;;;;;;;4.90;2.30;;;10.70;99.90;;;;;;5073398;28;20055;-82
2023/01/12 10:23:13;;;;;;;5.28;2.20;;;10.80;99.90;;;;;;5038637;28;20037;-82
2023/01/12 10:25:50;;;;;;;2.80;1.80;;;10.80;99.90;;;;;;5055354;28;20477;-81
2023/01/12 10:28:23;;;;;;;4.82;2.08;;;10.80;99.90;;;;;;5073265;28;20036;-83
2023/01/12 10:30:50;;;;;;;3.40;1.58;;;10.80;99.90;;;;;;5055381;28;20104;-81
2023/01/12 10:33:19;;;;;;;6.57;1.77;;;10.80;99.90;;;;;;5055161;28;20032;-82
2023/01/12 10:35:56;;;;;;;2.03;1.50;;;10.80;99.90;;;;;;5055218;28;20021;-81
2023/01/12 10:38:37;;;;;;;1.92;1.48;;;10.90;99.90;;;;;;5055120;28;20021;-81
2023/01/12 10:41:18;;;;;;;3.53;1.50;;;10.90;99.90;;;;;;5073237;28;20066;-82
2023/01/12 10:44:04;;;;;;;3.53;1.70;;;10.80;99.90;;;;;;5055163;28;20086;-82
2023/01/12 10:46:31;;;;;;;3.00;1.55;;;10.80;99.90;;;;;;5073129;28;20032;-82
2023/01/12 10:49:17;;;;;;;3.67;1.98;;;10.90;99.90;;;;;;5073141;28;20028;-81
2023/01/12 10:51:59;;;;;;;3.88;1.58;;;10.90;99.90;;;;;;5073043;28;20036;-82
2023/01/12 10:54:33;;;;;;;4.63;2.40;;;10.90;99.90;;;;;;5072999;28;20460;-82
2023/01/12 10:57:28;;;;;;;2.92;1.58;;;10.90;99.90;;;;;;5054950;28;20025;-82
2023/01/12 10:59:58;;;;;;;3.40;2.22;;;10.90;99.90;;;;;;5037894;28;20563;-82
2023/01/12 11:02:27;;;;;;;2.47;1.80;;;10.90;99.90;;;;;;5054874;28;20029;-81
2023/01/12 11:04:54;;;;;;;3.40;1.70;;;11.00;99.90;;;;;;5054605;28;20024;-84
2023/01/12 11:07:29;;;;;;;3.95;2.25;;;11.00;99.90;;;;;;5054900;28;20032;-82
2023/01/12 11:10:15;;;;;;;3.10;1.77;;;11.00;99.90;;;;;;5073368;28;20029;-82
2023/01/12 11:12:41;;;;;;;3.47;1.90;;;11.00;99.90;;;;;;5054494;28;20375;-83
2023/01/12 11:15:13;;;;;;;4.35;2.40;;;11.00;99.90;;;;;;5038344;28;20074;-82
2023/01/12 11:17:57;;;;;;;11.00;3.10;;;11.00;99.90;;;;;;5054757;28;20025;-82
2023/01/12 11:20:29;;;;;;;5.32;2.40;;;11.00;99.90;;;;;;5054486;28;20055;-83
2023/01/12 11:23:00;;;;;;;2.60;2.25;;;11.00;99.90;;;;;;5057840;28;20037;-81
2023/01/12 11:25:29;;;;;;;3.05;2.13;;;11.10;99.90;;;;;;5058324;28;20119;-80
2023/01/12 11:28:08;;;;;;;4.05;2.20;;;11.10;99.90;;;;;;5076141;28;20060;-80
2023/01/12 11:30:45;;;;;;;3.50;2.38;;;11.10;99.90;;;;;;5058304;28;20028;-80
2023/01/12 11:33:30;;;;;;;3.35;2.30;;;11.10;99.90;;;;;;5058305;28;20086;-80
2023/01/12 11:36:16;;;;;;;3.00;2.28;;;11.10;99.90;;;;;;5058225;28;20032;-80
2023/01/12 11:38:54;;;;;;;4.85;2.63;;;11.10;99.90;;;;;;5057447;28;20029;-80
2023/01/12 11:41:33;;;;;;;4.90;2.97;;;11.10;99.90;;;;;;5075648;28;20020;-81
2023/01/12 11:44:21;;;;;;;6.95;3.65;;;11.10;99.90;;;;;;5058111;28;20032;-81
2023/01/12 11:46:54;;;;;;;4.90;2.70;;;11.10;99.90;;;;;;5057868;28;20032;-81
2023/01/12 11:49:28;;;;;;;5.93;3.08;;;11.10;99.90;;;;;;5058018;28;20020;-82
2023/01/12 11:51:56;;;;;;;4.50;2.47;;;11.10;99.90;;;;;;5058007;28;20033;-81
2023/01/12 11:54:23;;;;;;;4.28;2.72;;;11.10;99.90;;;;;;5057785;28;20445;-82
2023/01/12 11:56:51;;;;;;;3.70;2.97;;;11.10;99.90;;;;;;5057800;28;20173;-82
2023/01/12 11:59:20;;;;;;;4.05;2.72;;;11.10;99.90;;;;;;5057695;28;20078;-82
2023/01/12 12:02:17;;;;;;;4.38;2.88;;;11.10;99.90;;;;;;5075800;28;20475;-81
2023/01/12 12:05:03;;;;;;;3.75;2.40;;;11.20;99.90;;;;;;5030179;28;20036;-81
2023/01/12 12:07:37;;;;;;;3.65;2.40;;;11.20;99.90;;;;;;5057495;28;20021;-81
2023/01/12 12:10:32;;;;;;;5.53;2.55;;;11.20;99.90;;;;;;5057534;28;20135;-81
2023/01/12 12:13:07;;;;;;;4.20;2.47;;;11.20;99.90;;;;;;5075261;28;20099;-82
2023/01/12 12:15:53;;;;;;;3.80;2.40;;;11.20;99.90;;;;;;5057464;28;20047;-82
2023/01/12 12:18:40;;;;;;;3.40;2.40;;;11.10;99.90;;;;;;5057086;28;20440;-84
2023/01/12 12:21:36;;;;;;;4.32;2.63;;;11.10;99.90;;;;;;5057058;28;20028;-81
2023/01/12 12:24:33;;;;;;;3.00;2.10;;;11.20;99.90;;;;;;5075251;28;20040;-81
2023/01/12 12:27:19;;;;;;;3.88;2.03;;;11.20;99.90;;;;;;5057107;28;20111;-83
2023/01/12 12:30:13;;;;;;;3.58;1.60;;;11.20;99.90;;;;;;5057293;28;20025;-83
2023/01/12 12:32:48;;;;;;;2.95;2.03;;;11.20;99.90;;;;;;5056698;28;20115;-82
2023/01/12 12:35:27;;;;;;;1.88;1.73;;;11.20;99.90;;;;;;5057129;28;20024;-83
2023/01/12 12:38:02;;;;;;;2.80;1.83;;;11.20;99.90;;;;;;5057282;28;20043;-82
2023/01/12 12:46:39;;;;;;;2.58;1.85;;;11.30;99.90;;;;;;5073742;28;20044;-83
2023/01/12 12:49:14;;;;;;;3.53;1.50;;;11.30;99.90;;;;;;5056355;28;20032;-83
2023/01/12 12:51:41;;;;;;;4.07;2.15;;;11.30;99.90;;;;;;5056355;28;20029;-82
2023/01/12 12:54:14;;;;;;;3.53;1.48;;;11.30;99.90;;;;;;5039731;28;20419;-81
2023/01/12 12:56:40;;;;;;;3.05;1.80;;;11.30;99.90;;;;;;5056259;28;20017;-81
2023/01/12 12:59:26;;;;;;;3.00;2.03;;;11.30;99.90;;;;;;5074681;28;20029;-82
2023/01/12 13:01:57;;;;;;;3.00;2.30;;;11.30;99.90;;;;;;5042558;28;20055;-82
2023/01/12 13:04:50;;;;;;;3.28;2.00;;;11.30;99.90;;;;;;5056161;28;20032;-87
2023/01/12 13:07:20;;;;;;;3.38;2.55;;;11.30;99.90;;;;;;5026929;28;20128;-84
2023/01/12 13:09:46;;;;;;;5.10;2.42;;;11.30;99.90;;;;;;5056305;28;20534;-83
2023/01/12 13:12:39;;;;;;;4.25;2.55;;;11.30;99.90;;;;;;5074351;28;20447;-83
2023/01/12 13:15:19;;;;;;;3.67;2.50;;;11.20;99.90;;;;;;5052799;28;20043;-85
2023/01/12 13:17:47;;;;;;;4.03;2.78;;;11.20;99.90;;;;;;5056310;28;20447;-81
2023/01/12 13:20:13;;;;;;;4.38;3.10;;;11.20;99.90;;;;;;5055786;28;20408;-82
2023/01/12 13:22:38;;;;;;;3.95;3.00;;;11.20;99.90;;;;;;5055954;28;20031;-82
2023/01/12 13:25:19;;;;;;;3.78;2.70;;;11.20;99.90;;;;;;5073962;28;20361;-82
2023/01/12 13:28:02;;;;;;;7.32;3.55;;;11.20;99.90;;;;;;5056071;28;20037;-82
2023/01/12 13:30:28;;;;;;;2.92;2.25;;;11.20;99.90;;;;;;5056052;28;20056;-82
2023/01/12 13:32:58;;;;;;;3.17;2.30;;;11.20;99.90;;;;;;5056106;28;20514;-81
2023/01/12 13:35:33;;;;;;;2.37;1.67;;;11.20;99.90;;;;;;5073706;28;20021;-82